Time;durP1;ratioP1;P1;durP2;ratioP2;P2;SDS_P1;SDS_P2;PMS_P1;PMS_P2;Temp;Humidity;BMP_temperature;BMP_pressure;BME280_temperature;BME280_humidity;BME280_pressure;Samples;Min_cycle;Max_cycle;Signal;HPM_P1;HPM_P2
2022/09/26 00:01:15;;;;;;;34.28;21.45;;;9.40;75.10;;;;;;5053411;28;20045;-67
2022/09/26 00:03:58;;;;;;;25.23;17.73;;;9.40;75.30;;;;;;5047723;28;20026;-66
2022/09/26 00:06:25;;;;;;;31.25;20.08;;;9.30;75.40;;;;;;5056157;28;20037;-66
2022/09/26 00:08:51;;;;;;;28.83;20.15;;;9.20;76.00;;;;;;5046475;28;20065;-66
2022/09/26 00:11:20;;;;;;;24.83;17.77;;;9.20;75.80;;;;;;5052429;28;20048;-66
2022/09/26 00:13:50;;;;;;;24.63;17.38;;;9.20;75.40;;;;;;5056700;28;20318;-66
2022/09/26 00:16:16;;;;;;;25.48;17.45;;;9.20;74.90;;;;;;5050887;28;20052;-66
2022/09/26 00:18:42;;;;;;;34.63;21.05;;;9.20;74.60;;;;;;5048271;28;20036;-66
2022/09/26 00:21:10;;;;;;;27.80;16.88;;;9.20;74.80;;;;;;5048359;28;20036;-66
2022/09/26 00:23:37;;;;;;;25.83;18.33;;;9.20;74.40;;;;;;5048755;28;20054;-66
2022/09/26 00:26:03;;;;;;;21.33;14.98;;;9.20;75.00;;;;;;5045010;28;20044;-66
2022/09/26 00:28:29;;;;;;;24.67;15.80;;;9.20;75.00;;;;;;5050237;28;20418;-65
2022/09/26 00:30:55;;;;;;;16.35;10.95;;;9.10;75.30;;;;;;5033443;28;20025;-66
2022/09/26 00:33:22;;;;;;;29.20;15.98;;;9.10;74.40;;;;;;5048495;28;20360;-66
2022/09/26 00:35:57;;;;;;;15.68;12.27;;;9.00;76.10;;;;;;5042576;28;20088;-65
2022/09/26 00:38:23;;;;;;;14.63;9.60;;;8.80;76.40;;;;;;5053751;28;20025;-66
2022/09/26 00:40:49;;;;;;;14.27;9.48;;;8.80;75.20;;;;;;5053875;28;20093;-65
2022/09/26 00:43:39;;;;;;;12.95;9.25;;;8.70;76.10;;;;;;5052999;28;20013;-66
2022/09/26 00:46:21;;;;;;;27.33;15.80;;;8.60;77.00;;;;;;5055289;28;20067;-65
2022/09/26 00:49:09;;;;;;;16.00;11.32;;;8.40;78.40;;;;;;5049278;28;20028;-65
2022/09/26 00:51:38;;;;;;;23.67;14.60;;;8.50;76.40;;;;;;5047821;28;20037;-66
2022/09/26 00:54:08;;;;;;;16.63;11.57;;;8.30;79.00;;;;;;5064620;28;20020;-66
2022/09/26 00:56:36;;;;;;;21.42;13.65;;;8.10;78.90;;;;;;5037426;28;20460;-66
2022/09/26 00:59:21;;;;;;;18.48;12.27;;;8.00;77.30;;;;;;5050667;28;20059;-66
2022/09/26 01:01:48;;;;;;;23.23;14.40;;;8.00;77.20;;;;;;5045628;28;20036;-66
2022/09/26 01:04:16;;;;;;;15.18;10.43;;;7.90;77.00;;;;;;5055356;28;20422;-66
2022/09/26 01:06:43;;;;;;;16.00;11.40;;;7.90;75.60;;;;;;5049890;28;20034;-66
2022/09/26 01:09:11;;;;;;;19.45;11.93;;;7.90;76.10;;;;;;5034988;28;20020;-66
2022/09/26 01:11:40;;;;;;;16.45;10.82;;;7.80;76.60;;;;;;5050705;28;20033;-66
2022/09/26 01:14:08;;;;;;;20.08;12.10;;;7.70;75.40;;;;;;5052191;28;20033;-66
2022/09/26 01:16:34;;;;;;;21.05;12.68;;;7.80;74.40;;;;;;5054977;28;20071;-66
2022/09/26 01:19:04;;;;;;;17.92;10.93;;;7.80;74.70;;;;;;5048563;28;20035;-65
2022/09/26 01:21:54;;;;;;;15.57;10.90;;;7.80;74.90;;;;;;5043914;28;20033;-67
2022/09/26 01:24:52;;;;;;;21.58;13.27;;;7.70;74.70;;;;;;5052265;28;20029;-66
2022/09/26 01:27:40;;;;;;;18.58;12.60;;;7.70;74.00;;;;;;5045045;28;20040;-66
2022/09/26 01:30:10;;;;;;;20.83;13.23;;;7.90;73.20;;;;;;5043181;28;20041;-66
2022/09/26 01:32:48;;;;;;;23.83;15.02;;;8.10;73.10;;;;;;5023768;28;20483;-66
2022/09/26 01:35:23;;;;;;;18.60;12.82;;;8.10;73.10;;;;;;5052808;28;20060;-66
2022/09/26 01:37:58;;;;;;;21.63;13.27;;;8.10;73.50;;;;;;5048768;28;20041;-66
2022/09/26 01:40:36;;;;;;;17.05;10.50;;;8.10;73.20;;;;;;5051121;28;20039;-65
2022/09/26 01:43:19;;;;;;;21.73;13.32;;;8.20;72.80;;;;;;5050459;28;20033;-66
2022/09/26 01:45:53;;;;;;;17.98;12.18;;;8.20;73.40;;;;;;5051583;28;20025;-66
2022/09/26 01:48:31;;;;;;;20.15;13.07;;;8.10;73.60;;;;;;5039327;28;20017;-66
2022/09/26 01:51:21;;;;;;;20.73;12.45;;;8.10;73.00;;;;;;5046244;28;20036;-66
2022/09/26 01:54:08;;;;;;;14.82;9.60;;;8.20;72.90;;;;;;5051071;28;20047;-65
2022/09/26 01:56:37;;;;;;;17.33;11.18;;;8.20;73.00;;;;;;5044162;28;20021;-65
2022/09/26 01:59:31;;;;;;;18.40;11.57;;;8.20;73.10;;;;;;5053474;28;20021;-65
2022/09/26 02:02:03;;;;;;;15.55;10.20;;;8.20;73.50;;;;;;5047791;28;20033;-65
2022/09/26 02:04:37;;;;;;;18.70;10.90;;;8.20;73.10;;;;;;5052869;28;20025;-65
2022/09/26 02:07:17;;;;;;;19.33;11.35;;;8.20;72.80;;;;;;5047483;28;20414;-67
2022/09/26 02:10:04;;;;;;;18.95;11.10;;;8.30;72.40;;;;;;5047144;28;20033;-67
2022/09/26 02:12:36;;;;;;;14.15;11.05;;;8.40;72.40;;;;;;5042902;28;20105;-66
2022/09/26 02:15:06;;;;;;;11.38;8.68;;;8.40;72.50;;;;;;5055949;28;20025;-66
2022/09/26 02:17:41;;;;;;;15.93;11.57;;;8.50;72.30;;;;;;5026909;28;20025;-66
2022/09/26 02:20:14;;;;;;;12.30;9.25;;;8.60;72.40;;;;;;5048764;28;20486;-67
2022/09/26 02:22:40;;;;;;;22.67;13.32;;;8.60;72.20;;;;;;5050203;28;20036;-66
2022/09/26 02:25:07;;;;;;;19.40;13.77;;;8.60;72.50;;;;;;5047892;28;20423;-66
2022/09/26 02:27:36;;;;;;;15.13;10.43;;;8.70;72.40;;;;;;5049166;28;20032;-66
2022/09/26 02:30:03;;;;;;;23.10;14.30;;;8.70;72.50;;;;;;5037373;28;20477;-66
2022/09/26 02:32:33;;;;;;;23.73;15.32;;;8.70;72.70;;;;;;5052552;28;20025;-66
2022/09/26 02:35:00;;;;;;;20.48;13.38;;;8.70;72.90;;;;;;5050311;28;20113;-66
2022/09/26 02:37:29;;;;;;;18.63;13.05;;;8.70;72.90;;;;;;5050914;28;20040;-67
2022/09/26 02:39:55;;;;;;;19.80;13.52;;;8.80;72.60;;;;;;5049651;28;20139;-67
2022/09/26 02:42:42;;;;;;;21.20;14.25;;;8.80;72.90;;;;;;5044038;28;20119;-66
2022/09/26 02:45:25;;;;;;;19.60;13.85;;;8.80;72.60;;;;;;5037133;28;20021;-66
2022/09/26 02:48:33;;;;;;;22.15;14.55;;;8.80;73.00;;;;;;5045436;28;20060;-66
2022/09/26 02:51:27;;;;;;;22.15;13.90;;;8.80;73.20;;;;;;5046083;28;20022;-66
2022/09/26 02:54:17;;;;;;;24.13;16.25;;;8.80;73.00;;;;;;5046865;28;20057;-66
2022/09/26 02:56:48;;;;;;;29.08;17.35;;;8.80;72.90;;;;;;5049073;28;20434;-66
2022/09/26 02:59:58;;;;;;;27.15;16.38;;;8.80;73.10;;;;;;5041506;28;20342;-65
2022/09/26 03:02:50;;;;;;;18.33;13.55;;;8.80;73.00;;;;;;4979769;28;20118;-66
2022/09/26 03:05:19;;;;;;;24.60;13.98;;;8.80;73.20;;;;;;4990841;28;20050;-66
2022/09/26 03:08:08;;;;;;;27.65;16.33;;;8.80;73.20;;;;;;5033360;28;20345;-66
2022/09/26 03:10:35;;;;;;;25.40;16.35;;;8.70;73.70;;;;;;5045031;28;20265;-66
2022/09/26 03:13:07;;;;;;;27.55;16.45;;;8.70;73.50;;;;;;5040324;28;20033;-66
2022/09/26 03:15:35;;;;;;;20.55;14.07;;;8.60;73.40;;;;;;5048738;28;20136;-66
2022/09/26 03:18:04;;;;;;;27.02;16.23;;;8.60;73.40;;;;;;5048010;28;20032;-66
2022/09/26 03:20:29;;;;;;;28.08;17.90;;;8.60;73.20;;;;;;5055296;28;20036;-66
2022/09/26 03:22:55;;;;;;;19.48;13.77;;;8.60;73.10;;;;;;5051833;28;20037;-66
2022/09/26 03:25:24;;;;;;;15.40;10.60;;;8.60;72.60;;;;;;5049956;28;20147;-66
2022/09/26 03:27:51;;;;;;;17.33;11.18;;;8.70;72.70;;;;;;5055635;28;20041;-66
2022/09/26 03:30:19;;;;;;;14.10;9.63;;;8.70;72.70;;;;;;5049605;28;20044;-66
2022/09/26 03:32:46;;;;;;;13.20;8.32;;;8.70;72.40;;;;;;5045823;28;20040;-66
2022/09/26 03:35:11;;;;;;;13.52;9.45;;;8.80;72.40;;;;;;5054937;28;20457;-66
2022/09/26 03:37:37;;;;;;;10.65;7.63;;;8.80;72.80;;;;;;5057691;28;20107;-66
2022/09/26 03:40:05;;;;;;;11.43;8.30;;;8.80;72.60;;;;;;5041328;28;20032;-65
2022/09/26 03:42:33;;;;;;;10.65;8.27;;;8.80;72.90;;;;;;5052064;28;20033;-66
2022/09/26 03:45:00;;;;;;;11.60;6.90;;;8.80;72.70;;;;;;5052955;28;20017;-66
2022/09/26 03:47:26;;;;;;;10.30;7.85;;;8.80;72.80;;;;;;5053886;28;20035;-66
2022/09/26 03:49:52;;;;;;;12.13;8.13;;;8.80;73.30;;;;;;5056607;28;20071;-66
2022/09/26 03:52:18;;;;;;;8.98;6.15;;;8.70;73.60;;;;;;5049467;28;20040;-66
2022/09/26 03:54:44;;;;;;;9.35;6.85;;;8.70;72.90;;;;;;5054434;28;20361;-66
2022/09/26 03:57:14;;;;;;;7.97;5.97;;;8.60;73.70;;;;;;5046924;28;20022;-66
2022/09/26 03:59:40;;;;;;;13.43;8.82;;;8.60;73.30;;;;;;5043523;28;20020;-66
2022/09/26 04:02:07;;;;;;;9.45;6.47;;;8.60;73.40;;;;;;5044634;28;20030;-66
2022/09/26 04:04:32;;;;;;;7.97;5.53;;;8.60;73.30;;;;;;5055874;28;20079;-65
2022/09/26 04:06:58;;;;;;;8.88;6.03;;;8.60;73.30;;;;;;5052851;28;20035;-66
2022/09/26 04:09:24;;;;;;;10.57;5.13;;;8.60;74.10;;;;;;5037323;28;20029;-66
2022/09/26 04:11:52;;;;;;;8.80;6.10;;;8.60;73.50;;;;;;5044624;28;20325;-66
2022/09/26 04:14:18;;;;;;;8.68;6.30;;;8.60;73.80;;;;;;5046445;28;20050;-66
2022/09/26 04:16:44;;;;;;;10.13;6.50;;;8.50;74.70;;;;;;5041069;28;20049;-65
2022/09/26 04:19:13;;;;;;;8.85;6.22;;;8.50;74.80;;;;;;5046441;28;20082;-66
2022/09/26 04:21:40;;;;;;;11.40;7.38;;;8.50;74.70;;;;;;5050032;28;20028;-65
2022/09/26 04:24:11;;;;;;;13.38;8.55;;;8.40;74.60;;;;;;5052418;28;20079;-66
2022/09/26 04:26:40;;;;;;;13.32;8.48;;;8.50;73.90;;;;;;5042281;28;20298;-65
2022/09/26 04:29:06;;;;;;;13.68;8.82;;;8.40;74.20;;;;;;5042909;28;20104;-65
2022/09/26 04:31:41;;;;;;;13.95;9.15;;;8.40;74.20;;;;;;5044321;28;20376;-64
2022/09/26 04:34:07;;;;;;;9.80;6.47;;;8.40;74.20;;;;;;5047494;28;20630;-66
2022/09/26 04:36:33;;;;;;;10.50;7.50;;;8.40;73.60;;;;;;5049458;28;20050;-65
2022/09/26 04:38:59;;;;;;;7.15;4.80;;;8.40;73.90;;;;;;5039169;28;20330;-65
2022/09/26 04:41:27;;;;;;;6.53;4.28;;;8.40;73.20;;;;;;5048526;28;20025;-64
2022/09/26 04:43:54;;;;;;;8.40;6.10;;;8.50;73.40;;;;;;5049043;28;20295;-65
2022/09/26 04:46:22;;;;;;;9.27;5.43;;;8.40;74.30;;;;;;5042362;28;20029;-66
2022/09/26 04:48:53;;;;;;;12.05;8.32;;;8.30;74.40;;;;;;5055975;28;20017;-67
2022/09/26 04:51:20;;;;;;;9.82;6.80;;;8.30;74.40;;;;;;5051025;28;20070;-66
2022/09/26 04:53:46;;;;;;;8.60;5.60;;;8.30;74.10;;;;;;5051127;28;20116;-65
2022/09/26 04:56:14;;;;;;;13.52;7.47;;;8.40;73.40;;;;;;5050379;28;20371;-64
2022/09/26 04:58:40;;;;;;;8.57;6.30;;;8.40;74.20;;;;;;5052463;28;20029;-64
2022/09/26 05:01:11;;;;;;;11.13;6.47;;;8.40;74.40;;;;;;5038049;28;20414;-66
2022/09/26 05:03:37;;;;;;;7.10;4.55;;;8.30;74.40;;;;;;5036610;28;20028;-65
2022/09/26 05:06:08;;;;;;;9.77;4.65;;;8.30;73.70;;;;;;5057034;28;20299;-64
2022/09/26 05:08:45;;;;;;;8.93;5.88;;;8.40;74.40;;;;;;5055963;28;20035;-64
2022/09/26 05:11:13;;;;;;;9.98;5.80;;;8.30;75.80;;;;;;5055676;28;20033;-66
2022/09/26 05:13:39;;;;;;;10.98;7.40;;;8.20;75.10;;;;;;5050926;28;20303;-66
2022/09/26 05:16:07;;;;;;;10.90;6.60;;;8.30;75.10;;;;;;5055156;28;20043;-66
2022/09/26 05:18:33;;;;;;;10.55;6.55;;;8.20;75.20;;;;;;5055524;28;20107;-66
2022/09/26 05:21:01;;;;;;;8.20;5.10;;;8.20;74.80;;;;;;5051915;28;20013;-66
2022/09/26 05:26:19;;;;;;;8.38;4.45;;;8.30;74.80;;;;;;5055667;28;20314;-66
2022/09/26 05:29:00;;;;;;;10.27;4.63;;;8.30;74.90;;;;;;5055951;28;20410;-67
2022/09/26 05:31:28;;;;;;;10.70;4.55;;;8.30;76.30;;;;;;5055931;28;20441;-66
2022/09/26 05:33:56;;;;;;;10.13;5.72;;;8.30;77.60;;;;;;5055429;28;20055;-66
2022/09/26 05:36:23;;;;;;;10.35;5.88;;;8.30;79.60;;;;;;5055428;28;20045;-67
2022/09/26 05:38:51;;;;;;;9.60;7.18;;;8.20;79.80;;;;;;5049182;28;20034;-67
2022/09/26 05:41:18;;;;;;;10.32;4.43;;;8.10;79.80;;;;;;5035946;28;20104;-67
2022/09/26 05:43:45;;;;;;;14.75;6.50;;;8.20;78.20;;;;;;5036651;28;20352;-67
2022/09/26 05:46:11;;;;;;;7.53;5.05;;;8.20;79.60;;;;;;5037364;28;20091;-67
2022/09/26 05:48:38;;;;;;;9.98;4.90;;;8.20;79.50;;;;;;5036262;28;20036;-66
2022/09/26 05:51:15;;;;;;;6.13;4.55;;;8.30;78.40;;;;;;5039142;28;20049;-67
2022/09/26 05:53:44;;;;;;;9.15;5.43;;;8.30;79.60;;;;;;5036086;28;20108;-67
2022/09/26 05:56:11;;;;;;;7.20;4.90;;;8.30;80.30;;;;;;5026099;28;20071;-67
2022/09/26 05:58:38;;;;;;;8.15;4.60;;;8.30;80.60;;;;;;5056121;28;20025;-67
2022/09/26 06:01:08;;;;;;;8.48;4.28;;;8.30;79.70;;;;;;5054612;28;20099;-67
2022/09/26 06:03:35;;;;;;;7.88;4.22;;;8.50;78.70;;;;;;5041865;28;20382;-66
2022/09/26 06:06:09;;;;;;;9.68;4.68;;;8.50;79.60;;;;;;5043376;28;20025;-67
2022/09/26 06:08:37;;;;;;;9.93;5.93;;;8.60;79.50;;;;;;5055805;28;20111;-66
2022/09/26 06:11:12;;;;;;;8.73;6.00;;;8.60;79.50;;;;;;5015761;28;20408;-66
2022/09/26 06:13:44;;;;;;;16.70;12.00;;;8.70;79.20;;;;;;5041014;28;20322;-67
2022/09/26 06:16:13;;;;;;;28.08;18.75;;;8.70;79.70;;;;;;5054907;28;20630;-67
2022/09/26 06:18:40;;;;;;;8.75;5.30;;;8.80;79.30;;;;;;5050511;28;20359;-67
2022/09/26 06:21:08;;;;;;;19.48;10.85;;;8.80;78.60;;;;;;5035627;28;20024;-67
2022/09/26 06:23:35;;;;;;;30.35;17.45;;;8.70;81.30;;;;;;5039103;28;20318;-66
2022/09/26 06:26:07;;;;;;;12.35;7.28;;;8.80;81.10;;;;;;5052992;28;20410;-67
2022/09/26 06:28:33;;;;;;;14.75;7.65;;;8.80;83.20;;;;;;5054104;28;20033;-67
2022/09/26 06:30:59;;;;;;;13.98;7.30;;;8.70;83.10;;;;;;5055683;28;20025;-68
2022/09/26 06:33:24;;;;;;;10.73;5.20;;;8.70;82.90;;;;;;5054638;28;20040;-66
2022/09/26 06:36:00;;;;;;;9.15;5.68;;;8.80;83.40;;;;;;5054543;28;20053;-66
2022/09/26 06:38:27;;;;;;;11.02;7.38;;;8.80;83.80;;;;;;5052917;28;20040;-66
2022/09/26 06:40:53;;;;;;;10.52;6.75;;;8.80;83.10;;;;;;5051067;28;20021;-67
2022/09/26 06:43:19;;;;;;;9.07;5.20;;;8.80;84.50;;;;;;5050571;28;20102;-66
2022/09/26 06:45:47;;;;;;;6.20;3.83;;;8.90;84.20;;;;;;5040136;28;20295;-67
2022/09/26 06:48:17;;;;;;;8.13;2.78;;;9.00;86.90;;;;;;5053830;28;20017;-66
2022/09/26 06:50:43;;;;;;;4.97;2.90;;;8.80;93.30;;;;;;5055501;28;20029;-66
2022/09/26 06:53:09;;;;;;;6.53;2.80;;;8.80;95.60;;;;;;5053948;28;20029;-66
2022/09/26 06:55:35;;;;;;;6.65;2.80;;;8.80;96.10;;;;;;5054356;28;20021;-66
2022/09/26 06:58:01;;;;;;;7.10;3.22;;;8.80;97.20;;;;;;5053505;28;20033;-66
2022/09/26 07:00:28;;;;;;;7.15;3.17;;;8.90;98.00;;;;;;5044148;28;20091;-66
2022/09/26 07:02:55;;;;;;;6.97;3.40;;;8.90;96.00;;;;;;5039304;28;20127;-66
2022/09/26 07:05:22;;;;;;;6.38;3.38;;;9.00;97.80;;;;;;5041839;28;20406;-66
2022/09/26 07:07:48;;;;;;;9.02;3.25;;;9.00;96.70;;;;;;5047669;28;20032;-66
2022/09/26 07:10:18;;;;;;;6.75;3.08;;;9.00;96.40;;;;;;5049062;28;20033;-67
2022/09/26 07:12:46;;;;;;;5.05;2.75;;;9.20;96.20;;;;;;5054340;28;20021;-66
2022/09/26 07:15:17;;;;;;;6.03;2.90;;;9.20;98.00;;;;;;5055938;28;20103;-66
2022/09/26 07:17:44;;;;;;;4.93;2.40;;;9.30;98.00;;;;;;5057500;28;20060;-65
2022/09/26 07:20:12;;;;;;;5.40;2.25;;;9.20;98.00;;;;;;5058041;28;20599;-66
2022/09/26 07:22:38;;;;;;;9.65;2.25;;;9.30;98.00;;;;;;5057693;28;20041;-66
2022/09/26 07:25:05;;;;;;;6.80;2.28;;;9.30;98.00;;;;;;5057140;28;20029;-65
2022/09/26 07:27:31;;;;;;;7.55;2.60;;;9.40;98.00;;;;;;5057306;28;20429;-66
2022/09/26 07:29:57;;;;;;;7.43;2.28;;;9.50;98.00;;;;;;5044939;28;20030;-66
2022/09/26 07:32:24;;;;;;;4.85;2.40;;;9.70;98.00;;;;;;5039798;28;20068;-66
2022/09/26 07:34:53;;;;;;;5.90;2.30;;;9.80;98.00;;;;;;5030008;28;20464;-66
2022/09/26 07:37:19;;;;;;;6.70;2.25;;;9.90;98.00;;;;;;5030316;28;20303;-66
2022/09/26 07:39:44;;;;;;;6.22;2.25;;;9.90;98.00;;;;;;5036817;28;20120;-66
2022/09/26 07:42:12;;;;;;;6.93;2.10;;;10.10;98.00;;;;;;5027355;28;20380;-66
2022/09/26 07:44:39;;;;;;;6.07;1.70;;;10.30;98.00;;;;;;5038544;28;20026;-65
2022/09/26 07:50:11;;;;;;;4.88;2.20;;;10.70;98.00;;;;;;5038635;28;20330;-65
2022/09/26 07:52:41;;;;;;;5.53;2.05;;;10.80;98.00;;;;;;5024839;28;20060;-65
2022/09/26 07:55:12;;;;;;;4.93;1.88;;;11.10;98.00;;;;;;5024978;28;20025;-65
2022/09/26 07:57:38;;;;;;;5.18;1.60;;;11.30;98.00;;;;;;5037764;28;20037;-66
2022/09/26 08:00:11;;;;;;;3.47;1.48;;;11.70;98.00;;;;;;5037129;28;20039;-66
2022/09/26 08:02:39;;;;;;;4.93;2.00;;;12.20;98.00;;;;;;5021926;28;20033;-66
2022/09/26 08:05:06;;;;;;;5.53;1.75;;;12.50;97.90;;;;;;5033091;28;20076;-66
2022/09/26 08:07:34;;;;;;;4.50;1.63;;;13.20;95.90;;;;;;5037080;28;20021;-66
2022/09/26 08:10:01;;;;;;;3.92;1.55;;;13.70;93.40;;;;;;5037060;28;20339;-66
2022/09/26 08:12:28;;;;;;;4.75;1.30;;;14.20;87.60;;;;;;5030826;28;20034;-66
2022/09/26 08:14:54;;;;;;;6.43;1.45;;;15.10;85.70;;;;;;5018494;28;20029;-66
2022/09/26 08:17:20;;;;;;;3.63;1.13;;;15.70;81.50;;;;;;5037328;28;20032;-66
2022/09/26 08:19:49;;;;;;;4.63;1.20;;;15.90;82.40;;;;;;5037824;28;20036;-66
2022/09/26 08:22:17;;;;;;;4.32;1.20;;;16.30;80.00;;;;;;5024659;28;20076;-66
2022/09/26 08:24:48;;;;;;;6.95;1.30;;;16.70;79.00;;;;;;5033248;28;20022;-66
2022/09/26 08:27:14;;;;;;;5.22;1.23;;;16.30;77.70;;;;;;5022832;28;20307;-66
2022/09/26 08:29:40;;;;;;;3.70;1.52;;;15.50;80.30;;;;;;5036939;28;20040;-66
2022/09/26 08:32:06;;;;;;;4.25;1.20;;;15.90;80.00;;;;;;5024363;28;20025;-66
2022/09/26 08:34:34;;;;;;;3.30;1.10;;;16.70;79.80;;;;;;5040099;28;20418;-66
2022/09/26 08:36:59;;;;;;;4.57;1.30;;;17.40;76.80;;;;;;5055160;28;20466;-66
2022/09/26 08:39:25;;;;;;;5.53;1.75;;;17.90;76.90;;;;;;5045860;28;20131;-66
2022/09/26 08:42:19;;;;;;;7.25;1.90;;;17.50;76.00;;;;;;5042774;28;20091;-67
2022/09/26 08:48:25;;;;;;;5.88;1.65;;;17.80;75.50;;;;;;5047542;28;20120;-67
2022/09/26 08:51:20;;;;;;;5.93;1.70;;;17.80;75.30;;;;;;5057596;28;20025;-66
2022/09/26 08:53:54;;;;;;;5.15;1.90;;;18.20;73.80;;;;;;5052570;28;20036;-66
2022/09/26 08:56:32;;;;;;;7.00;2.45;;;19.10;73.70;;;;;;5057200;28;20025;-67
2022/09/26 08:59:00;;;;;;;8.15;1.95;;;18.70;72.90;;;;;;5054126;28;20033;-66
2022/09/26 09:01:37;;;;;;;6.22;2.20;;;17.20;76.50;;;;;;5057130;28;20049;-67
2022/09/26 09:04:25;;;;;;;7.40;2.42;;;16.10;79.50;;;;;;5056271;28;20025;-66
2022/09/26 09:07:01;;;;;;;17.25;4.00;;;15.50;82.80;;;;;;5053946;28;20017;-66
2022/09/26 09:09:29;;;;;;;7.25;2.40;;;15.50;82.10;;;;;;5045820;28;20057;-65
2022/09/26 09:12:44;;;;;;;7.00;2.33;;;14.80;84.40;;;;;;5047274;28;20033;-65
2022/09/26 09:15:41;;;;;;;6.35;2.33;;;15.00;85.00;;;;;;4997903;28;20048;-66
2022/09/26 09:18:48;;;;;;;5.45;2.50;;;16.10;83.50;;;;;;5023825;28;20342;-65
2022/09/26 09:21:24;;;;;;;6.45;2.70;;;16.90;80.50;;;;;;4992834;28;20491;-65
2022/09/26 09:24:06;;;;;;;5.82;2.63;;;16.70;79.60;;;;;;4992642;28;20070;-66
2022/09/26 09:26:50;;;;;;;8.82;3.63;;;16.80;79.10;;;;;;5027769;28;20044;-66
2022/09/26 09:29:52;;;;;;;9.90;3.17;;;16.80;78.00;;;;;;5036704;28;20017;-66
2022/09/26 09:32:21;;;;;;;6.30;3.00;;;16.20;80.30;;;;;;5036721;28;20056;-66
2022/09/26 09:34:48;;;;;;;5.78;2.53;;;16.50;80.70;;;;;;5037079;28;20064;-66
2022/09/26 09:37:24;;;;;;;6.50;2.85;;;17.00;79.40;;;;;;5048787;28;20021;-66
2022/09/26 09:39:51;;;;;;;10.55;3.33;;;16.80;78.00;;;;;;5051730;28;20071;-66
2022/09/26 09:42:24;;;;;;;8.10;2.95;;;15.40;81.30;;;;;;5049534;28;20075;-65
2022/09/26 09:45:17;;;;;;;6.72;2.22;;;15.10;82.00;;;;;;5054803;28;20056;-65
2022/09/26 09:47:43;;;;;;;5.43;2.50;;;15.20;81.80;;;;;;5045900;28;20348;-66
2022/09/26 09:50:29;;;;;;;6.70;2.38;;;15.40;81.40;;;;;;5039276;28;20092;-66
2022/09/26 09:53:12;;;;;;;5.70;2.72;;;16.10;80.30;;;;;;5050752;28;20041;-66
2022/09/26 09:55:47;;;;;;;7.63;2.72;;;16.60;79.00;;;;;;5049667;28;20419;-65
2022/09/26 09:58:40;;;;;;;5.28;2.10;;;17.20;77.10;;;;;;5038944;28;20033;-66
2022/09/26 10:01:13;;;;;;;4.93;2.00;;;17.20;76.30;;;;;;5038287;28;20026;-66
2022/09/26 10:03:49;;;;;;;4.38;1.80;;;16.80;76.50;;;;;;5044590;28;20029;-66
2022/09/26 10:06:15;;;;;;;6.93;3.13;;;17.00;77.40;;;;;;5053215;28;20295;-66
2022/09/26 10:08:41;;;;;;;4.70;2.15;;;17.10;76.40;;;;;;5041058;28;20037;-66
2022/09/26 10:11:27;;;;;;;6.63;2.80;;;17.00;75.90;;;;;;5037857;28;20021;-66
2022/09/26 10:14:00;;;;;;;6.10;2.00;;;16.90;76.30;;;;;;5053141;28;20376;-66
2022/09/26 10:16:26;;;;;;;5.07;1.80;;;17.10;76.30;;;;;;5053603;28;20025;-65
2022/09/26 10:19:04;;;;;;;5.00;2.15;;;17.40;76.20;;;;;;5052381;28;20025;-66
2022/09/26 10:21:33;;;;;;;8.18;2.22;;;17.80;75.70;;;;;;5043063;28;20041;-66
2022/09/26 10:24:01;;;;;;;5.13;1.65;;;18.50;74.30;;;;;;5038136;28;20033;-66
2022/09/26 10:26:38;;;;;;;5.88;1.95;;;18.90;71.70;;;;;;5053020;28;20485;-66
2022/09/26 10:29:34;;;;;;;5.93;1.95;;;19.00;71.20;;;;;;5054194;28;20386;-65
2022/09/26 10:32:00;;;;;;;5.55;1.65;;;18.40;72.30;;;;;;5045573;28;20048;-66
2022/09/26 10:34:28;;;;;;;5.75;1.90;;;18.20;71.30;;;;;;5054941;28;20060;-66
2022/09/26 10:37:20;;;;;;;3.38;1.50;;;18.40;72.20;;;;;;5057923;28;20029;-66
2022/09/26 10:42:45;;;;;;;5.95;2.10;;;16.70;76.30;;;;;;5043391;28;20437;-64
2022/09/26 10:45:17;;;;;;;6.00;2.00;;;16.50;74.90;;;;;;5039760;28;20087;-64
2022/09/26 10:47:45;;;;;;;4.28;1.83;;;16.20;75.60;;;;;;5053441;28;20287;-64
2022/09/26 10:50:15;;;;;;;5.00;2.03;;;16.60;76.00;;;;;;5058432;28;20104;-64
2022/09/26 10:53:00;;;;;;;4.00;1.60;;;17.40;75.20;;;;;;5057414;28;20303;-66
2022/09/26 10:55:38;;;;;;;5.40;1.90;;;17.30;73.70;;;;;;5057155;28;20029;-66
2022/09/26 10:58:07;;;;;;;5.93;2.03;;;16.50;74.90;;;;;;5045787;28;20036;-66
2022/09/26 11:00:39;;;;;;;5.43;1.92;;;15.90;76.50;;;;;;5044546;28;20017;-65
2022/09/26 11:03:16;;;;;;;6.10;2.05;;;15.50;78.30;;;;;;5044798;28;20419;-65
2022/09/26 11:05:56;;;;;;;6.03;2.03;;;15.30;79.10;;;;;;5054128;28;20029;-65
2022/09/26 11:08:29;;;;;;;9.05;2.55;;;15.20;79.50;;;;;;5057162;28;20031;-65
2022/09/26 11:10:58;;;;;;;8.75;3.72;;;15.20;81.00;;;;;;5057408;28;20032;-65
2022/09/26 11:13:28;;;;;;;7.18;3.33;;;15.00;81.00;;;;;;5051556;28;20064;-65
2022/09/26 11:16:00;;;;;;;9.57;4.47;;;14.80;81.80;;;;;;5056520;28;20033;-65
2022/09/26 11:19:06;;;;;;;6.32;2.40;;;14.80;83.30;;;;;;5055554;28;20029;-66
2022/09/26 11:22:13;;;;;;;7.38;3.20;;;15.10;83.20;;;;;;5056612;28;20167;-65
2022/09/26 11:24:45;;;;;;;7.90;1.80;;;16.60;82.00;;;;;;5046368;28;20025;-66
2022/09/26 11:27:31;;;;;;;4.43;2.00;;;17.20;75.90;;;;;;5053034;28;20021;-65
2022/09/26 11:29:57;;;;;;;3.40;1.50;;;16.20;77.60;;;;;;5053751;28;20024;-65
2022/09/26 11:32:42;;;;;;;3.40;1.50;;;16.00;77.00;;;;;;5047923;28;20438;-66
2022/09/26 11:35:12;;;;;;;;;;;17.10;75.20;;;;;;5056264;28;20037;-66
2022/09/26 11:37:57;;;;;;;3.95;1.42;;;17.70;74.00;;;;;;5051229;28;19999;-65
2022/09/26 11:40:42;;;;;;;4.43;1.60;;;17.20;75.10;;;;;;5057000;28;20035;-65
2022/09/26 11:43:26;;;;;;;6.97;1.60;;;17.60;73.60;;;;;;5044596;28;20033;-65
2022/09/26 11:46:34;;;;;;;4.80;1.80;;;17.10;73.70;;;;;;5048428;28;20029;-65
2022/09/26 11:49:09;;;;;;;6.68;2.20;;;16.00;76.00;;;;;;5044217;28;20029;-65
2022/09/26 11:51:39;;;;;;;4.95;1.75;;;15.70;76.80;;;;;;5044344;28;20318;-65
2022/09/26 11:54:22;;;;;;;3.40;1.40;;;16.30;75.90;;;;;;5045542;28;20037;-65
2022/09/26 11:57:24;;;;;;;4.75;1.65;;;16.10;75.60;;;;;;5050792;28;20108;-64
2022/09/26 12:00:26;;;;;;;5.13;1.70;;;16.40;76.50;;;;;;5017233;28;20129;-65
2022/09/26 12:03:18;;;;;;;5.53;1.83;;;17.00;74.70;;;;;;5042734;28;20025;-65
2022/09/26 12:06:18;;;;;;;4.90;1.60;;;17.60;73.10;;;;;;5049255;28;20061;-65
2022/09/26 12:08:59;;;;;;;3.90;1.27;;;17.80;71.80;;;;;;5040437;28;20382;-65
2022/09/26 12:11:46;;;;;;;5.50;1.58;;;17.80;70.20;;;;;;5037953;28;20045;-65
2022/09/26 12:14:18;;;;;;;3.95;1.30;;;18.00;70.70;;;;;;5048487;28;20025;-65
2022/09/26 12:17:10;;;;;;;3.30;1.00;;;17.80;70.00;;;;;;5056562;28;20033;-65
2022/09/26 12:20:00;;;;;;;4.03;1.30;;;17.50;66.60;;;;;;5056995;28;20021;-65
2022/09/26 12:22:36;;;;;;;3.10;1.27;;;17.70;70.20;;;;;;5050812;28;20033;-65
2022/09/26 12:25:06;;;;;;;4.15;1.27;;;17.80;70.60;;;;;;5040511;28;20018;-65
2022/09/26 12:27:44;;;;;;;4.10;1.38;;;17.80;71.90;;;;;;5037986;28;20025;-65
2022/09/26 12:30:32;;;;;;;2.47;1.10;;;17.10;71.70;;;;;;5045440;28;20349;-65
2022/09/26 12:33:03;;;;;;;5.80;1.30;;;16.80;73.10;;;;;;5046012;28;20025;-65
2022/09/26 12:35:54;;;;;;;2.60;1.10;;;17.10;69.40;;;;;;5040240;28;20076;-65
2022/09/26 12:39:01;;;;;;;3.67;1.10;;;16.70;69.00;;;;;;5037667;28;20041;-65
2022/09/26 12:41:45;;;;;;;3.33;1.10;;;16.50;72.30;;;;;;5053934;28;20029;-65
2022/09/26 12:44:30;;;;;;;;;;;16.10;71.40;;;;;;5053012;28;20437;-66
2022/09/26 12:47:20;;;;;;;5.30;1.60;;;15.40;72.30;;;;;;5045864;28;19932;-66
2022/09/26 12:50:10;;;;;;;3.25;1.20;;;15.30;73.20;;;;;;5056757;28;20033;-66
2022/09/26 12:52:53;;;;;;;4.28;1.20;;;15.10;73.50;;;;;;5050935;28;20056;-66
2022/09/26 12:55:44;;;;;;;4.07;1.60;;;14.90;76.00;;;;;;5036064;28;20052;-66
2022/09/26 12:58:20;;;;;;;4.72;2.08;;;14.50;79.40;;;;;;5043780;28;20025;-65
2022/09/26 13:01:05;;;;;;;3.95;2.00;;;13.50;86.10;;;;;;5057343;28;20163;-66
2022/09/26 13:03:40;;;;;;;4.40;2.13;;;13.30;89.00;;;;;;5055128;28;20327;-66
2022/09/26 13:06:36;;;;;;;4.13;2.00;;;13.10;90.20;;;;;;5053752;28;20021;-66
2022/09/26 13:09:14;;;;;;;3.65;2.08;;;12.90;91.60;;;;;;5054346;28;20028;-66
2022/09/26 13:11:58;;;;;;;5.47;2.53;;;12.60;93.30;;;;;;5056837;28;20029;-66
2022/09/26 13:14:45;;;;;;;11.05;3.35;;;12.60;95.10;;;;;;5047783;28;20083;-66
2022/09/26 13:17:21;;;;;;;4.90;1.85;;;12.50;93.80;;;;;;5040067;28;20841;-66
2022/09/26 13:20:00;;;;;;;4.57;1.80;;;12.50;93.50;;;;;;5056704;28;20075;-66
2022/09/26 13:22:33;;;;;;;4.78;2.33;;;12.50;92.80;;;;;;5046181;28;20326;-66
2022/09/26 13:25:10;;;;;;;5.18;1.83;;;12.50;92.90;;;;;;5035704;28;20022;-66
2022/09/26 13:27:45;;;;;;;6.88;2.50;;;12.60;91.40;;;;;;5042821;28;20436;-66
2022/09/26 13:30:16;;;;;;;5.50;1.83;;;12.70;91.00;;;;;;5043195;28;20048;-66
2022/09/26 13:32:54;;;;;;;4.47;1.88;;;13.00;90.80;;;;;;5043621;28;20013;-65